createdAt,value
2018-06-22T00:01:00.756Z,14.66
2018-06-22T00:03:30.442Z,14.29
2018-06-22T00:06:00.072Z,14.49
2018-06-22T00:08:29.624Z,14.57
2018-06-22T00:10:59.142Z,14.73
2018-06-22T00:13:28.993Z,14.35
2018-06-22T00:15:58.443Z,14.15
2018-06-22T00:18:27.958Z,13.98
2018-06-22T00:20:57.368Z,14.24
2018-06-22T00:23:26.809Z,14.34
2018-06-22T00:25:56.223Z,13.82
2018-06-22T00:28:26.113Z,14.18
2018-06-22T00:30:55.595Z,14.38
2018-06-22T00:33:25.367Z,13.96
2018-06-22T00:35:54.692Z,14.12
2018-06-22T00:38:24.659Z,14.21
2018-06-22T00:40:54.533Z,14.29
2018-06-22T00:43:23.840Z,13.96
2018-06-22T00:45:53.499Z,14.10
2018-06-22T00:48:22.939Z,13.94
2018-06-22T00:50:52.293Z,13.82
2018-06-22T00:53:32.911Z,13.99
2018-06-22T00:56:03.372Z,14.03
2018-06-22T00:58:33.033Z,14.18
2018-06-22T01:01:02.657Z,14.05
2018-06-22T01:03:32.256Z,13.77
2018-06-22T01:06:02.185Z,13.93
2018-06-22T01:08:31.555Z,13.98
2018-06-22T01:11:01.341Z,14.15
2018-06-22T01:13:31.203Z,14.15
2018-06-22T01:16:01.250Z,14.17
2018-06-22T01:18:30.548Z,14.14
2018-06-22T01:20:59.841Z,14.30
2018-06-22T01:23:29.362Z,14.32
2018-06-22T01:25:59.348Z,14.21
2018-06-22T01:28:29.033Z,14.18
2018-06-22T01:30:58.699Z,14.17
2018-06-22T01:33:28.189Z,14.22
2018-06-22T01:35:57.598Z,14.28
2018-06-22T01:38:27.233Z,14.21
2018-06-22T01:40:57.145Z,14.26
2018-06-22T01:43:27.324Z,14.15
2018-06-22T01:45:57.442Z,13.98
2018-06-22T01:48:26.815Z,14.05
2018-06-22T01:50:56.345Z,13.99
2018-06-22T01:53:25.797Z,13.97
2018-06-22T01:55:55.340Z,14.00
2018-06-22T01:58:24.958Z,13.81
2018-06-22T02:00:54.245Z,13.85
2018-06-22T02:03:27.679Z,13.66
2018-06-22T02:05:57.501Z,13.87
2018-06-22T02:08:27.369Z,13.88
2018-06-22T02:10:57.119Z,14.03
2018-06-22T02:13:26.723Z,13.73
2018-06-22T02:15:56.087Z,13.81
2018-06-22T02:18:25.875Z,13.86
2018-06-22T02:20:56.112Z,13.95
2018-06-22T02:23:25.353Z,13.98
2018-06-22T02:25:55.979Z,14.03
2018-06-22T02:28:25.881Z,13.66
2018-06-22T02:30:55.416Z,13.67
2018-06-22T02:33:24.871Z,13.92
2018-06-22T02:35:54.542Z,14.02
2018-06-22T02:38:23.936Z,13.82
2018-06-22T02:40:54.029Z,14.00
2018-06-22T02:43:23.411Z,13.96
2018-06-22T02:45:52.739Z,14.03
2018-06-22T02:48:22.445Z,14.14
2018-06-22T02:50:51.693Z,13.96
2018-06-22T02:53:21.230Z,13.81
2018-06-22T02:55:50.544Z,13.93
2018-06-22T02:58:20.464Z,14.02
2018-06-22T03:00:50.103Z,13.97
2018-06-22T03:03:19.980Z,13.73
2018-06-22T03:05:50.120Z,14.06
2018-06-22T03:08:19.396Z,13.69
2018-06-22T03:10:49.345Z,14.02
2018-06-22T03:13:19.311Z,13.98
2018-06-22T03:15:49.051Z,13.52
2018-06-22T03:18:18.423Z,13.41
2018-06-22T03:20:48.502Z,13.65
2018-06-22T03:23:18.072Z,13.76
2018-06-22T03:25:47.665Z,13.66
2018-06-22T03:28:16.900Z,13.73
2018-06-22T03:30:46.785Z,13.68
2018-06-22T03:33:16.806Z,13.85
2018-06-22T03:35:46.315Z,13.77
2018-06-22T03:38:15.918Z,13.81
2018-06-22T03:40:45.947Z,13.92
2018-06-22T03:43:15.443Z,14.06
2018-06-22T03:45:45.541Z,13.76
2018-06-22T03:48:15.581Z,13.93
2018-06-22T03:50:44.964Z,14.03
2018-06-22T03:53:14.358Z,14.21
2018-06-22T03:55:43.973Z,14.26
2018-06-22T03:58:13.886Z,14.16
2018-06-22T04:00:43.485Z,13.85
2018-06-22T04:03:13.098Z,13.94
2018-06-22T04:05:42.685Z,14.03
2018-06-22T04:08:12.538Z,14.20
2018-06-22T04:10:41.776Z,14.14
2018-06-22T04:13:11.795Z,14.20
2018-06-22T04:15:41.345Z,14.39
2018-06-22T04:18:10.949Z,14.26
2018-06-22T04:20:40.921Z,13.97
2018-06-22T04:23:12.542Z,13.74
2018-06-22T04:25:42.595Z,14.10
2018-06-22T04:28:11.996Z,14.17
2018-06-22T04:30:42.345Z,13.92
2018-06-22T04:33:12.704Z,14.05
2018-06-22T04:35:42.860Z,14.07
2018-06-22T04:38:12.238Z,13.97
2018-06-22T04:40:41.822Z,13.99
2018-06-22T04:43:11.760Z,14.04
2018-06-22T04:45:41.807Z,14.49
2018-06-22T04:48:11.762Z,13.91
2018-06-22T04:50:41.210Z,14.05
2018-06-22T04:53:11.226Z,14.27
2018-06-22T04:55:40.574Z,14.27
2018-06-22T04:58:09.976Z,14.22
2018-06-22T05:00:40.279Z,14.05
2018-06-22T05:03:09.511Z,13.83
2018-06-22T05:05:38.816Z,14.04
2018-06-22T05:08:08.542Z,14.22
2018-06-22T05:10:38.072Z,14.14
2018-06-22T05:13:07.673Z,14.38
2018-06-22T05:15:37.551Z,14.43
2018-06-22T05:18:06.927Z,14.20
2018-06-22T05:20:36.401Z,14.28
2018-06-22T05:23:06.010Z,14.42
2018-06-22T05:25:36.239Z,14.50
2018-06-22T05:28:05.820Z,14.31
2018-06-22T05:30:35.391Z,14.83
2018-06-22T05:33:04.967Z,14.59
2018-06-22T05:35:35.051Z,14.30
2018-06-22T05:38:04.906Z,14.49
2018-06-22T05:40:34.308Z,14.55
2018-06-22T05:43:04.301Z,14.39
2018-06-22T05:45:34.347Z,14.29
2018-06-22T05:48:03.719Z,14.34
2018-06-22T05:50:33.162Z,15.09
2018-06-22T05:53:02.860Z,14.95
2018-06-22T05:55:32.426Z,14.61
2018-06-22T05:58:01.846Z,14.48
2018-06-22T06:00:31.208Z,14.61
2018-06-22T06:03:01.058Z,14.59
2018-06-22T06:05:30.342Z,14.54
2018-06-22T06:07:59.957Z,14.55
2018-06-22T06:10:29.548Z,14.48
2018-06-22T06:12:59.005Z,14.56
2018-06-22T06:15:28.314Z,14.46
2018-06-22T06:17:57.871Z,14.58
2018-06-22T06:20:27.283Z,14.59
2018-06-22T06:22:57.395Z,14.51
2018-06-22T06:25:26.836Z,14.49
2018-06-22T06:27:56.690Z,14.44
2018-06-22T06:30:26.763Z,14.54
2018-06-22T06:32:56.366Z,14.46
2018-06-22T06:35:25.883Z,14.64
2018-06-22T06:37:55.330Z,14.58
2018-06-22T06:40:25.010Z,14.76
2018-06-22T06:42:54.792Z,14.87
2018-06-22T06:45:24.396Z,14.61
2018-06-22T06:47:53.820Z,14.66
2018-06-22T06:50:23.290Z,14.57
2018-06-22T06:52:52.774Z,14.57
2018-06-22T06:55:22.285Z,14.51
2018-06-22T06:57:51.726Z,14.34
2018-06-22T07:00:21.308Z,14.49
2018-06-22T07:02:50.931Z,14.61
2018-06-22T07:05:20.529Z,14.61
2018-06-22T07:07:50.068Z,15.13
2018-06-22T07:10:23.502Z,15.63
2018-06-22T07:12:52.876Z,15.22
2018-06-22T07:15:22.421Z,14.91
2018-06-22T07:17:52.021Z,14.92
2018-06-22T07:20:22.009Z,14.84
2018-06-22T07:22:51.831Z,14.83
2018-06-22T07:25:21.805Z,14.65
2018-06-22T07:27:51.556Z,14.64
2018-06-22T07:30:21.426Z,14.62
2018-06-22T07:32:51.008Z,14.72
2018-06-22T07:35:20.781Z,14.88
2018-06-22T07:37:50.388Z,14.65
2018-06-22T07:40:20.489Z,14.69
2018-06-22T07:42:49.906Z,14.55
2018-06-22T07:45:19.423Z,14.70
2018-06-22T07:47:48.906Z,14.54
2018-06-22T07:50:18.554Z,14.60
2018-06-22T07:52:48.030Z,14.76
2018-06-22T07:55:17.553Z,14.74
2018-06-22T07:57:47.429Z,14.79
2018-06-22T08:00:17.378Z,14.78
2018-06-22T08:02:47.696Z,14.60
2018-06-22T08:05:17.526Z,14.60
2018-06-22T08:07:47.902Z,14.62
2018-06-22T08:10:17.907Z,14.50
2018-06-22T08:12:47.487Z,14.49
2018-06-22T08:15:16.926Z,14.71
2018-06-22T08:17:46.270Z,14.75
2018-06-22T08:20:15.842Z,14.81
2018-06-22T08:22:45.982Z,15.01
2018-06-22T08:25:15.547Z,14.96
2018-06-22T08:27:45.200Z,14.99
2018-06-22T08:30:14.527Z,15.12
2018-06-22T08:32:43.972Z,15.08
2018-06-22T08:35:13.390Z,14.89
2018-06-22T08:37:42.763Z,14.74
2018-06-22T08:40:12.185Z,14.69
2018-06-22T08:42:41.682Z,14.68
2018-06-22T08:45:12.176Z,14.81
2018-06-22T08:47:41.841Z,14.49
2018-06-22T08:50:11.631Z,14.53
2018-06-22T08:52:40.998Z,14.58
2018-06-22T08:55:10.883Z,14.40
2018-06-22T08:57:40.467Z,14.35
2018-06-22T09:00:10.573Z,14.28
2018-06-22T09:02:40.359Z,14.50
2018-06-22T09:05:09.717Z,14.32
2018-06-22T09:07:42.878Z,14.32
2018-06-22T09:10:12.426Z,14.55
2018-06-22T09:12:42.765Z,14.55
2018-06-22T09:15:12.396Z,14.78
2018-06-22T09:17:42.186Z,14.90
2018-06-22T09:20:11.864Z,14.79
2018-06-22T09:22:41.180Z,14.72
2018-06-22T09:25:10.836Z,14.91
2018-06-22T09:27:40.277Z,14.95
2018-06-22T09:30:09.971Z,14.88
2018-06-22T09:32:39.253Z,14.81
2018-06-22T09:35:09.828Z,14.90
2018-06-22T09:37:39.499Z,14.90
2018-06-22T09:40:08.918Z,14.89
2018-06-22T09:42:38.384Z,15.03
2018-06-22T09:45:07.688Z,15.17
2018-06-22T09:47:37.130Z,15.28
2018-06-22T09:50:06.791Z,15.22
2018-06-22T09:52:36.682Z,15.28
2018-06-22T09:55:06.769Z,15.35
2018-06-22T09:57:36.353Z,15.41
2018-06-22T10:00:05.895Z,15.36
2018-06-22T10:02:35.236Z,15.46
2018-06-22T10:05:05.172Z,15.45
2018-06-22T10:07:34.599Z,15.46
2018-06-22T10:10:04.077Z,15.50
2018-06-22T10:12:34.428Z,15.46
2018-06-22T10:15:04.125Z,15.51
2018-06-22T10:17:33.704Z,15.52
2018-06-22T10:20:03.470Z,15.41
2018-06-22T10:22:32.801Z,15.36
2018-06-22T10:25:02.123Z,15.44
2018-06-22T10:27:31.386Z,15.46
2018-06-22T10:30:01.013Z,15.41
2018-06-22T10:32:30.742Z,15.05
2018-06-22T10:35:00.141Z,14.83
2018-06-22T10:37:29.491Z,15.03
2018-06-22T10:39:58.939Z,14.96
2018-06-22T10:42:28.406Z,15.18
2018-06-22T10:44:57.721Z,15.22
2018-06-22T10:47:27.425Z,15.47
2018-06-22T10:49:57.370Z,15.29
2018-06-22T10:52:26.951Z,15.36
2018-06-22T10:54:56.517Z,15.09
2018-06-22T10:57:26.031Z,15.31
2018-06-22T10:59:55.475Z,15.49
2018-06-22T11:02:25.192Z,15.19
2018-06-22T11:04:54.548Z,15.18
2018-06-22T11:07:24.452Z,14.99
2018-06-22T11:09:53.871Z,15.21
2018-06-22T11:12:23.365Z,15.52
2018-06-22T11:14:52.652Z,15.58
2018-06-22T11:17:22.186Z,15.69
2018-06-22T11:19:51.879Z,15.91
2018-06-22T11:22:21.355Z,15.86
2018-06-22T11:24:51.485Z,15.85
2018-06-22T11:27:21.338Z,15.96
2018-06-22T11:29:50.838Z,16.08
2018-06-22T11:32:20.506Z,15.97
2018-06-22T11:34:50.230Z,16.17
2018-06-22T11:37:19.792Z,16.15
2018-06-22T11:39:49.490Z,16.41
2018-06-22T11:42:19.260Z,16.34
2018-06-22T11:44:48.689Z,16.53
2018-06-22T11:47:18.391Z,16.90
2018-06-22T11:49:48.263Z,16.66
2018-06-22T11:52:17.924Z,16.72
2018-06-22T11:54:47.739Z,16.60
2018-06-22T11:57:17.273Z,16.46
2018-06-22T11:59:47.439Z,16.20
2018-06-22T12:02:17.239Z,16.44
2018-06-22T12:04:47.197Z,16.41
2018-06-22T12:07:17.138Z,16.53
2018-06-22T12:09:46.916Z,16.65
2018-06-22T12:12:16.703Z,16.79
2018-06-22T12:14:46.287Z,16.72
2018-06-22T12:17:16.010Z,16.46
2018-06-22T12:19:45.749Z,16.64
2018-06-22T12:22:15.335Z,16.79
2018-06-22T12:24:44.713Z,17.17
2018-06-22T12:27:14.094Z,17.36
2018-06-22T12:29:43.861Z,17.30
2018-06-22T12:32:13.175Z,17.31
2018-06-22T12:34:42.634Z,17.42
2018-06-22T12:37:12.183Z,17.51
2018-06-22T12:39:43.185Z,17.63
2018-06-22T12:42:12.847Z,17.65
2018-06-22T12:44:42.204Z,17.65
2018-06-22T12:47:11.745Z,17.68
2018-06-22T12:49:41.541Z,17.87
2018-06-22T12:52:10.925Z,17.80
2018-06-22T12:54:40.462Z,17.91
2018-06-22T12:57:10.544Z,18.08
2018-06-22T12:59:39.973Z,18.07
2018-06-22T13:02:09.659Z,18.11
2018-06-22T13:04:39.210Z,18.13
2018-06-22T13:07:09.170Z,17.90
2018-06-22T13:09:39.078Z,18.05
2018-06-22T13:12:09.324Z,18.21
2018-06-22T13:14:38.670Z,18.34
2018-06-22T13:17:08.811Z,18.56
2018-06-22T13:19:38.101Z,18.74
2018-06-22T13:22:07.573Z,18.80
2018-06-22T13:24:36.880Z,19.05
2018-06-22T13:27:06.323Z,19.16
2018-06-22T13:29:40.375Z,19.02
2018-06-22T13:32:09.677Z,18.73
2018-06-22T13:34:39.024Z,18.47
2018-06-22T13:37:09.612Z,18.77
2018-06-22T13:39:39.218Z,18.79
2018-06-22T13:42:09.026Z,18.52
2018-06-22T13:44:38.651Z,18.50
2018-06-22T13:47:08.425Z,18.49
2018-06-22T13:49:38.326Z,18.71
2018-06-22T13:52:08.238Z,18.97
2018-06-22T13:54:38.756Z,18.78
2018-06-22T13:57:08.462Z,19.07
2018-06-22T13:59:37.851Z,18.87
2018-06-22T14:02:07.374Z,18.82
2018-06-22T14:05:41.775Z,18.82
2018-06-22T14:08:11.287Z,18.70
2018-06-22T14:10:40.737Z,18.59
2018-06-22T14:13:10.415Z,18.45
2018-06-22T14:15:40.426Z,18.38
2018-06-22T14:18:09.850Z,18.44
2018-06-22T14:20:39.196Z,18.56
2018-06-22T14:23:09.294Z,18.78
2018-06-22T14:25:39.015Z,18.70
2018-06-22T14:28:08.743Z,18.61
2018-06-22T14:30:38.962Z,18.58
2018-06-22T14:33:08.802Z,18.43
2018-06-22T14:35:38.203Z,18.45
2018-06-22T14:38:08.332Z,18.42
2018-06-22T14:40:37.850Z,18.36
2018-06-22T14:43:07.181Z,18.27
2018-06-22T14:45:36.829Z,18.24
2018-06-22T14:48:06.267Z,18.27
2018-06-22T14:50:35.622Z,18.33
2018-06-22T14:53:05.429Z,18.50
2018-06-22T14:55:40.354Z,18.47
2018-06-22T14:58:15.106Z,18.31
2018-06-22T15:01:47.296Z,18.20
2018-06-22T15:04:21.850Z,18.12
2018-06-22T15:06:56.956Z,18.39
2018-06-22T15:09:26.743Z,18.67
2018-06-22T15:11:56.826Z,18.60
2018-06-22T15:14:27.009Z,18.52
2018-06-22T15:16:56.981Z,18.37
2018-06-22T15:19:26.439Z,18.23
2018-06-22T15:21:55.912Z,18.20
2018-06-22T15:24:25.636Z,18.41
2018-06-22T15:26:56.034Z,18.59
2018-06-22T15:29:25.628Z,18.73
2018-06-22T15:31:55.110Z,18.68
2018-06-22T15:34:29.620Z,18.77
2018-06-22T15:37:04.270Z,18.78
2018-06-22T15:39:39.007Z,18.63
2018-06-22T15:42:13.594Z,18.66
2018-06-22T15:44:48.783Z,18.60
2018-06-22T15:47:23.402Z,18.69
2018-06-22T15:49:58.249Z,18.68
2018-06-22T15:52:33.241Z,18.69
2018-06-22T15:55:10.864Z,18.82
2018-06-22T15:57:40.211Z,19.10
2018-06-22T16:00:11.623Z,19.04
2018-06-22T16:02:46.406Z,18.84
2018-06-22T16:05:15.988Z,18.67
2018-06-22T16:07:46.674Z,18.75
2018-06-22T16:10:16.084Z,18.78
2018-06-22T16:12:45.418Z,18.85
2018-06-22T16:15:20.399Z,18.96
2018-06-22T16:17:55.598Z,18.92
2018-06-22T16:20:30.210Z,18.66
2018-06-22T16:23:04.689Z,18.49
2018-06-22T16:25:39.713Z,18.50
2018-06-22T16:28:09.681Z,18.35
2018-06-22T16:30:40.036Z,18.60
2018-06-22T16:33:09.700Z,18.47
2018-06-22T16:35:39.453Z,18.33
2018-06-22T16:38:08.986Z,18.11
2018-06-22T16:40:39.176Z,18.25
2018-06-22T16:43:09.089Z,18.21
2018-06-22T16:45:38.434Z,18.25
2018-06-22T16:48:08.012Z,18.36
2018-06-22T16:50:37.896Z,18.40
2018-06-22T16:53:07.927Z,18.42
2018-06-22T16:55:37.811Z,18.34
2018-06-22T16:58:11.269Z,18.36
2018-06-22T17:00:40.978Z,18.47
2018-06-22T17:03:10.423Z,18.53
2018-06-22T17:05:39.747Z,18.31
2018-06-22T17:08:14.516Z,18.08
2018-06-22T17:10:49.703Z,18.00
2018-06-22T17:13:24.584Z,17.93
2018-06-22T17:15:59.779Z,17.99
2018-06-22T17:18:59.853Z,17.67
2018-06-22T17:21:29.515Z,17.85
2018-06-22T17:23:58.855Z,17.85
2018-06-22T17:26:28.555Z,17.65
2018-06-22T17:29:01.550Z,17.70
2018-06-22T17:31:31.355Z,17.59
2018-06-22T17:34:01.434Z,17.58
2018-06-22T17:36:31.390Z,17.44
2018-06-22T17:39:00.743Z,17.52
2018-06-22T17:41:30.507Z,17.62
2018-06-22T17:44:01.283Z,17.52
2018-06-22T17:46:31.442Z,17.66
2018-06-22T17:49:01.429Z,17.63
2018-06-22T17:51:30.859Z,17.59
2018-06-22T17:54:00.403Z,17.51
2018-06-22T17:56:32.749Z,17.35
2018-06-22T17:59:07.628Z,17.26
2018-06-22T18:01:42.733Z,17.23
2018-06-22T18:04:17.656Z,17.15
2018-06-22T18:06:52.729Z,17.09
2018-06-22T18:09:31.066Z,17.12
2018-06-22T18:12:05.819Z,17.04
2018-06-22T18:14:35.479Z,17.06
2018-06-22T18:17:05.246Z,17.14
2018-06-22T18:19:35.013Z,17.17
2018-06-22T18:22:04.592Z,17.16
2018-06-22T18:24:34.788Z,17.21
2018-06-22T18:27:04.235Z,17.15
2018-06-22T18:29:33.833Z,17.03
2018-06-22T18:32:03.247Z,17.08
2018-06-22T18:34:32.617Z,17.15
2018-06-22T18:37:02.088Z,17.15
2018-06-22T18:39:34.642Z,17.05
2018-06-22T18:42:04.147Z,16.89
2018-06-22T18:44:34.005Z,16.82
2018-06-22T18:47:03.636Z,16.90
2018-06-22T18:49:33.166Z,16.89
2018-06-22T18:52:07.757Z,16.96
2018-06-22T18:54:42.108Z,16.71
2018-06-22T18:57:17.003Z,16.86
2018-06-22T18:59:49.420Z,16.81
2018-06-22T19:02:24.327Z,16.61
2018-06-22T19:04:53.761Z,16.77
2018-06-22T19:07:23.268Z,16.78
2018-06-22T19:09:52.883Z,16.67
2018-06-22T19:12:22.302Z,16.53
2018-06-22T19:14:51.733Z,16.46
2018-06-22T19:17:21.193Z,16.46
2018-06-22T19:19:50.823Z,16.32
2018-06-22T19:22:24.169Z,16.30
2018-06-22T19:24:53.591Z,16.28
2018-06-22T19:27:23.015Z,16.43
2018-06-22T19:29:52.828Z,16.53
2018-06-22T19:32:22.871Z,16.49
2018-06-22T19:34:58.030Z,16.45
2018-06-22T19:37:28.315Z,16.54
2018-06-22T19:39:58.305Z,16.57
2018-06-22T19:42:27.821Z,16.62
2018-06-22T19:45:02.568Z,16.47
2018-06-22T19:47:40.293Z,16.36
2018-06-22T19:50:15.173Z,16.44
2018-06-22T19:52:50.097Z,16.34
2018-06-22T19:55:19.986Z,16.24
2018-06-22T19:57:49.627Z,16.95
2018-06-22T20:00:19.209Z,16.68
2018-06-22T20:02:49.221Z,16.44
2018-06-22T20:05:19.146Z,16.49
2018-06-22T20:07:49.204Z,16.27
2018-06-22T20:10:19.244Z,16.30
2018-06-22T20:12:48.839Z,16.38
2018-06-22T20:15:24.448Z,16.28
2018-06-22T20:17:55.403Z,16.16
2018-06-22T20:20:24.716Z,16.17
2018-06-22T20:22:55.082Z,16.20
2018-06-22T20:25:30.240Z,16.21
2018-06-22T20:28:00.179Z,16.06
2018-06-22T20:30:29.698Z,16.05
2018-06-22T20:32:59.619Z,15.94
2018-06-22T20:35:34.583Z,16.05
2018-06-22T20:38:09.415Z,16.09
2018-06-22T20:40:44.799Z,16.04
2018-06-22T20:43:20.444Z,16.09
2018-06-22T20:45:53.224Z,16.15
2018-06-22T20:48:28.539Z,16.05
2018-06-22T20:50:57.958Z,16.10
2018-06-22T20:53:27.629Z,16.02
2018-06-22T20:55:57.297Z,15.95
2018-06-22T20:58:26.636Z,15.86
2018-06-22T21:00:56.941Z,15.90
2018-06-22T21:03:26.883Z,15.87
2018-06-22T21:05:56.424Z,15.87
2018-06-22T21:08:29.231Z,15.76
2018-06-22T21:10:58.715Z,15.76
2018-06-22T21:13:28.407Z,15.69
2018-06-22T21:15:57.823Z,15.60
2018-06-22T21:18:27.169Z,15.64
2018-06-22T21:21:03.872Z,15.69
2018-06-22T21:23:34.145Z,15.76
2018-06-22T21:26:03.882Z,15.67
2018-06-22T21:28:45.768Z,15.79
2018-06-22T21:31:20.408Z,15.59
2018-06-22T21:33:55.277Z,15.70
2018-06-22T21:36:30.081Z,15.64
2018-06-22T21:39:02.239Z,15.67
2018-06-22T21:41:32.001Z,15.62
2018-06-22T21:44:01.692Z,15.54
2018-06-22T21:46:31.158Z,15.65
2018-06-22T21:49:01.534Z,15.67
2018-06-22T21:51:32.397Z,15.70
2018-06-22T21:54:01.856Z,15.71
2018-06-22T21:56:31.292Z,15.61
2018-06-22T21:59:00.676Z,15.67
2018-06-22T22:01:30.491Z,15.69
2018-06-22T22:03:59.952Z,15.65
2018-06-22T22:06:29.627Z,15.62
2018-06-22T22:08:59.897Z,15.59
2018-06-22T22:12:04.391Z,15.54
2018-06-22T22:14:33.701Z,15.53
2018-06-22T22:17:03.202Z,15.34
2018-06-22T22:19:36.210Z,15.37
2018-06-22T22:22:06.017Z,15.44
2018-06-22T22:24:36.463Z,15.48
2018-06-22T22:27:06.367Z,15.50
2018-06-22T22:29:36.248Z,15.47
2018-06-22T22:32:06.039Z,15.42
2018-06-22T22:34:35.638Z,15.52
2018-06-22T22:37:05.070Z,15.49
2018-06-22T22:39:34.465Z,15.52
2018-06-22T22:42:03.782Z,15.54
2018-06-22T22:44:33.184Z,15.62
2018-06-22T22:47:02.747Z,15.59
2018-06-22T22:49:32.359Z,15.57
2018-06-22T22:52:02.047Z,15.44
2018-06-22T22:54:31.767Z,15.30
2018-06-22T22:57:01.025Z,15.49
2018-06-22T22:59:33.914Z,15.52
2018-06-22T23:02:03.639Z,15.52
2018-06-22T23:04:33.107Z,15.45
2018-06-22T23:07:03.616Z,15.48
2018-06-22T23:09:33.770Z,15.45
2018-06-22T23:12:03.880Z,15.54
2018-06-22T23:14:33.311Z,15.48
2018-06-22T23:17:03.414Z,15.44
2018-06-22T23:19:32.831Z,15.41
2018-06-22T23:22:02.311Z,15.36
2018-06-22T23:24:31.717Z,15.39
2018-06-22T23:27:01.063Z,15.29
2018-06-22T23:29:30.807Z,15.41
2018-06-22T23:32:00.571Z,15.23
2018-06-22T23:34:30.282Z,15.17
2018-06-22T23:36:59.612Z,15.15
2018-06-22T23:39:28.874Z,15.22
2018-06-22T23:41:58.372Z,15.33
2018-06-22T23:44:28.142Z,15.42
2018-06-22T23:46:58.351Z,15.21
2018-06-22T23:49:28.181Z,15.15
2018-06-22T23:51:57.496Z,15.16
2018-06-22T23:54:27.357Z,15.13
2018-06-22T23:56:57.122Z,15.16
2018-06-22T23:59:26.725Z,15.22
